BAW926B EBBR-EDDF
Flight info
| Callsign | BAW926B |
|---|---|
| Flight time | 0h 41m |
| Altitude | 23000 |
| Route | SPI1X SPI T180 NIVNU T847 IMCOM IMCOM1A |
| Aircraft | A20N/M-SDGHIJ1LRWXY/SB1 |
Departure
| Time | 2026-05-05 21:19 |
|---|---|
| Airport | Brussels Airport (EBBR) |
Arrival
| Time | 2026-05-05 22:01 |
|---|---|
| Airport | Frankfurt Main Airport (EDDF) |
| Time | Latitude | Longitude | Altitude | Speed | Heading |
|---|---|---|---|---|---|
| 2026-05-05 20:40 | 50.89907 | 4.48614 | 143 ft | 0 kts | 336° |
| 2026-05-05 21:06 | 50.89905 | 4.48616 | 143 ft | 3 kts | 336° |
| 2026-05-05 21:07 | 50.89881 | 4.48633 | 143 ft | 4 kts | 338° |
| 2026-05-05 21:07 | 50.89856 | 4.48648 | 143 ft | 4 kts | 338° |
| 2026-05-05 21:07 | 50.89831 | 4.48663 | 143 ft | 4 kts | 358° |
| 2026-05-05 21:07 | 50.89815 | 4.48656 | 143 ft | 1 kts | 65° |
| 2026-05-05 21:08 | 50.89814 | 4.48650 | 143 ft | 0 kts | 65° |
| 2026-05-05 21:13 | 50.89826 | 4.48694 | 143 ft | 8 kts | 65° |
| 2026-05-05 21:13 | 50.89863 | 4.48822 | 143 ft | 18 kts | 65° |
| 2026-05-05 21:13 | 50.89927 | 4.49036 | 143 ft | 23 kts | 66° |
| 2026-05-05 21:13 | 50.89940 | 4.49253 | 143 ft | 17 kts | 165° |
| 2026-05-05 21:14 | 50.89818 | 4.49217 | 144 ft | 19 kts | 196° |
| 2026-05-05 21:14 | 50.89683 | 4.49159 | 144 ft | 21 kts | 194° |
| 2026-05-05 21:14 | 50.89598 | 4.49198 | 144 ft | 12 kts | 130° |
| 2026-05-05 21:14 | 50.89581 | 4.49234 | 144 ft | 0 kts | 124° |
| 2026-05-05 21:17 | 50.89574 | 4.49249 | 144 ft | 9 kts | 125° |
| 2026-05-05 21:18 | 50.89525 | 4.49354 | 148 ft | 13 kts | 127° |
| 2026-05-05 21:18 | 50.89521 | 4.49467 | 154 ft | 12 kts | 43° |
| 2026-05-05 21:18 | 50.89639 | 4.49526 | 153 ft | 39 kts | 13° |
| 2026-05-05 21:18 | 50.90183 | 4.49747 | 143 ft | 120 kts | 14° |
| 2026-05-05 21:19 | 50.91196 | 4.50145 | 318 ft | 161 kts | 14° |
| 2026-05-05 21:19 | 50.92231 | 4.50598 | 1362 ft | 151 kts | 20° |
| 2026-05-05 21:19 | 50.93158 | 4.51337 | 2280 ft | 153 kts | 36° |
| 2026-05-05 21:19 | 50.94057 | 4.52393 | 2919 ft | 169 kts | 38° |
| 2026-05-05 21:20 | 50.95043 | 4.53598 | 3417 ft | 189 kts | 44° |
| 2026-05-05 21:20 | 50.95845 | 4.55384 | 3873 ft | 211 kts | 66° |
| 2026-05-05 21:20 | 50.96036 | 4.57748 | 4549 ft | 225 kts | 98° |
| 2026-05-05 21:20 | 50.95371 | 4.60010 | 5417 ft | 234 kts | 130° |
| 2026-05-05 21:21 | 50.94010 | 4.61454 | 6301 ft | 242 kts | 161° |
| 2026-05-05 21:21 | 50.92321 | 4.61997 | 6984 ft | 258 kts | 172° |
| 2026-05-05 21:21 | 50.90451 | 4.62257 | 7473 ft | 279 kts | 174° |
| 2026-05-05 21:21 | 50.89160 | 4.62412 | 8015 ft | 283 kts | 174° |
| 2026-05-05 21:22 | 50.87180 | 4.62625 | 8932 ft | 287 kts | 175° |
| 2026-05-05 21:22 | 50.85161 | 4.62823 | 9589 ft | 293 kts | 175° |
| 2026-05-05 21:22 | 50.83132 | 4.63060 | 10066 ft | 296 kts | 172° |
| 2026-05-05 21:22 | 50.81120 | 4.64122 | 10324 ft | 317 kts | 148° |
| 2026-05-05 21:23 | 50.79450 | 4.66510 | 10680 ft | 334 kts | 124° |
| 2026-05-05 21:23 | 50.78460 | 4.69838 | 11419 ft | 338 kts | 107° |
| 2026-05-05 21:23 | 50.77878 | 4.73455 | 12210 ft | 342 kts | 103° |
| 2026-05-05 21:23 | 50.77286 | 4.77125 | 12984 ft | 347 kts | 109° |
| 2026-05-05 21:24 | 50.76379 | 4.80683 | 13756 ft | 351 kts | 114° |
| 2026-05-05 21:24 | 50.75375 | 4.84225 | 14463 ft | 355 kts | 116° |
| 2026-05-05 21:24 | 50.74328 | 4.87780 | 15154 ft | 359 kts | 116° |
| 2026-05-05 21:24 | 50.73252 | 4.91360 | 15865 ft | 363 kts | 116° |
| 2026-05-05 21:25 | 50.72158 | 4.94974 | 16546 ft | 367 kts | 117° |
| 2026-05-05 21:25 | 50.71048 | 4.98628 | 17225 ft | 371 kts | 117° |
| 2026-05-05 21:25 | 50.69928 | 5.02312 | 17912 ft | 375 kts | 117° |
| 2026-05-05 21:25 | 50.68793 | 5.06046 | 18544 ft | 379 kts | 117° |
| 2026-05-05 21:26 | 50.67652 | 5.09797 | 19175 ft | 381 kts | 117° |
| 2026-05-05 21:26 | 50.66502 | 5.13569 | 19814 ft | 383 kts | 116° |
| 2026-05-05 21:26 | 50.65343 | 5.17368 | 20427 ft | 386 kts | 116° |
| 2026-05-05 21:26 | 50.64191 | 5.21136 | 21036 ft | 388 kts | 116° |
| 2026-05-05 21:27 | 50.63014 | 5.24982 | 21638 ft | 391 kts | 116° |
| 2026-05-05 21:27 | 50.61813 | 5.28900 | 22243 ft | 394 kts | 116° |
| 2026-05-05 21:27 | 50.60613 | 5.32804 | 22702 ft | 398 kts | 116° |
| 2026-05-05 21:27 | 50.59424 | 5.36670 | 22832 ft | 398 kts | 116° |
| 2026-05-05 21:28 | 50.58217 | 5.40588 | 22857 ft | 399 kts | 116° |
| 2026-05-05 21:28 | 50.57005 | 5.44514 | 22854 ft | 398 kts | 116° |
| 2026-05-05 21:28 | 50.55794 | 5.48432 | 22857 ft | 398 kts | 116° |
| 2026-05-05 21:28 | 50.54582 | 5.52345 | 22856 ft | 398 kts | 116° |
| 2026-05-05 21:29 | 50.53367 | 5.56265 | 22855 ft | 399 kts | 116° |
| 2026-05-05 21:29 | 50.52150 | 5.60185 | 22853 ft | 399 kts | 116° |
| 2026-05-05 21:29 | 50.51113 | 5.64229 | 22852 ft | 400 kts | 108° |
| 2026-05-05 21:29 | 50.50331 | 5.68415 | 22852 ft | 399 kts | 107° |
| 2026-05-05 21:30 | 50.49558 | 5.72609 | 22850 ft | 400 kts | 107° |
| 2026-05-05 21:30 | 50.48779 | 5.76804 | 22845 ft | 400 kts | 107° |
| 2026-05-05 21:30 | 50.47995 | 5.81003 | 22844 ft | 400 kts | 107° |
| 2026-05-05 21:30 | 50.47208 | 5.85195 | 22843 ft | 401 kts | 107° |
| 2026-05-05 21:31 | 50.46419 | 5.89390 | 22836 ft | 400 kts | 107° |
| 2026-05-05 21:31 | 50.45629 | 5.93579 | 22832 ft | 401 kts | 107° |
| 2026-05-05 21:31 | 50.44836 | 5.97772 | 22833 ft | 401 kts | 107° |
| 2026-05-05 21:31 | 50.44042 | 6.01962 | 22826 ft | 400 kts | 108° |
| 2026-05-05 21:32 | 50.43247 | 6.06146 | 22828 ft | 400 kts | 108° |
| 2026-05-05 21:32 | 50.42455 | 6.10309 | 22819 ft | 400 kts | 108° |
| 2026-05-05 21:32 | 50.41658 | 6.14488 | 22817 ft | 400 kts | 108° |
| 2026-05-05 21:32 | 50.40859 | 6.18667 | 22818 ft | 400 kts | 108° |
| 2026-05-05 21:33 | 50.40058 | 6.22847 | 22817 ft | 400 kts | 108° |
| 2026-05-05 21:33 | 50.39256 | 6.27023 | 22812 ft | 400 kts | 108° |
| 2026-05-05 21:33 | 50.38453 | 6.31198 | 22811 ft | 400 kts | 108° |
| 2026-05-05 21:33 | 50.37647 | 6.35374 | 22807 ft | 400 kts | 108° |
| 2026-05-05 21:34 | 50.36847 | 6.39550 | 22805 ft | 400 kts | 107° |
| 2026-05-05 21:34 | 50.36281 | 6.43819 | 22805 ft | 402 kts | 99° |
| 2026-05-05 21:34 | 50.36006 | 6.48176 | 22801 ft | 402 kts | 96° |
| 2026-05-05 21:34 | 50.35752 | 6.52519 | 22578 ft | 399 kts | 97° |
| 2026-05-05 21:35 | 50.35483 | 6.56841 | 22107 ft | 397 kts | 97° |
| 2026-05-05 21:35 | 50.35209 | 6.61128 | 21557 ft | 395 kts | 97° |
| 2026-05-05 21:35 | 50.34938 | 6.65335 | 20957 ft | 392 kts | 97° |
| 2026-05-05 21:35 | 50.34664 | 6.69570 | 20373 ft | 390 kts | 97° |
| 2026-05-05 21:36 | 50.34388 | 6.73835 | 19793 ft | 388 kts | 97° |
| 2026-05-05 21:36 | 50.34160 | 6.77975 | 19221 ft | 386 kts | 96° |
| 2026-05-05 21:36 | 50.33861 | 6.82131 | 18668 ft | 383 kts | 101° |
| 2026-05-05 21:36 | 50.33250 | 6.86161 | 18131 ft | 379 kts | 108° |
| 2026-05-05 21:37 | 50.32381 | 6.90039 | 17524 ft | 376 kts | 113° |
| 2026-05-05 21:37 | 50.31367 | 6.93793 | 16941 ft | 373 kts | 116° |
| 2026-05-05 21:37 | 50.30293 | 6.97465 | 16368 ft | 370 kts | 116° |
| 2026-05-05 21:37 | 50.29199 | 7.01103 | 15825 ft | 368 kts | 117° |
| 2026-05-05 21:38 | 50.28124 | 7.04724 | 15261 ft | 366 kts | 113° |
| 2026-05-05 21:38 | 50.27569 | 7.08603 | 14715 ft | 367 kts | 96° |
| 2026-05-05 21:38 | 50.27413 | 7.12578 | 14189 ft | 366 kts | 93° |
| 2026-05-05 21:38 | 50.27322 | 7.16542 | 13672 ft | 364 kts | 93° |
| 2026-05-05 21:39 | 50.27220 | 7.20494 | 13124 ft | 362 kts | 94° |
| 2026-05-05 21:39 | 50.27093 | 7.24408 | 12589 ft | 359 kts | 94° |
| 2026-05-05 21:39 | 50.26946 | 7.28291 | 12062 ft | 357 kts | 95° |
| 2026-05-05 21:39 | 50.26788 | 7.32159 | 11539 ft | 355 kts | 95° |
| 2026-05-05 21:40 | 50.26624 | 7.35993 | 11034 ft | 353 kts | 95° |
| 2026-05-05 21:40 | 50.26459 | 7.39808 | 10525 ft | 351 kts | 95° |
| 2026-05-05 21:40 | 50.26293 | 7.43597 | 10046 ft | 349 kts | 95° |
| 2026-05-05 21:40 | 50.26128 | 7.47366 | 9614 ft | 345 kts | 95° |
| 2026-05-05 21:41 | 50.25966 | 7.51043 | 9467 ft | 332 kts | 95° |
| 2026-05-05 21:41 | 50.25810 | 7.54570 | 9328 ft | 319 kts | 95° |
| 2026-05-05 21:41 | 50.25659 | 7.57961 | 9197 ft | 306 kts | 96° |
| 2026-05-05 21:41 | 50.25512 | 7.61234 | 8968 ft | 299 kts | 96° |
| 2026-05-05 21:42 | 50.25367 | 7.64436 | 8838 ft | 296 kts | 96° |
| 2026-05-05 21:42 | 50.25217 | 7.67677 | 8822 ft | 300 kts | 96° |
| 2026-05-05 21:42 | 50.25070 | 7.70874 | 8814 ft | 298 kts | 96° |
| 2026-05-05 21:42 | 50.24920 | 7.74102 | 8815 ft | 298 kts | 96° |
| 2026-05-05 21:43 | 50.24769 | 7.77343 | 8817 ft | 299 kts | 96° |
| 2026-05-05 21:43 | 50.24617 | 7.80580 | 8815 ft | 298 kts | 96° |
| 2026-05-05 21:43 | 50.24466 | 7.83811 | 8817 ft | 299 kts | 96° |
| 2026-05-05 21:43 | 50.24312 | 7.87054 | 8817 ft | 299 kts | 96° |
| 2026-05-05 21:44 | 50.24159 | 7.90287 | 8818 ft | 298 kts | 96° |
| 2026-05-05 21:44 | 50.24004 | 7.93525 | 8817 ft | 300 kts | 96° |
| 2026-05-05 21:44 | 50.23848 | 7.96765 | 8819 ft | 299 kts | 96° |
| 2026-05-05 21:44 | 50.23691 | 8.00005 | 8819 ft | 299 kts | 96° |
| 2026-05-05 21:45 | 50.23534 | 8.03245 | 8819 ft | 299 kts | 96° |
| 2026-05-05 21:45 | 50.23375 | 8.06491 | 8817 ft | 300 kts | 96° |
| 2026-05-05 21:45 | 50.23216 | 8.09732 | 8819 ft | 299 kts | 96° |
| 2026-05-05 21:45 | 50.23056 | 8.12970 | 8819 ft | 300 kts | 96° |
| 2026-05-05 21:46 | 50.22895 | 8.16217 | 8816 ft | 300 kts | 96° |
| 2026-05-05 21:46 | 50.22732 | 8.19464 | 8818 ft | 300 kts | 96° |
| 2026-05-05 21:46 | 50.22568 | 8.22712 | 8815 ft | 300 kts | 96° |
| 2026-05-05 21:46 | 50.22403 | 8.25959 | 8816 ft | 300 kts | 96° |
| 2026-05-05 21:47 | 50.22239 | 8.29202 | 8811 ft | 300 kts | 96° |
| 2026-05-05 21:47 | 50.22073 | 8.32440 | 8666 ft | 298 kts | 96° |
| 2026-05-05 21:47 | 50.21907 | 8.35658 | 8373 ft | 296 kts | 96° |
| 2026-05-05 21:47 | 50.21742 | 8.38861 | 7999 ft | 295 kts | 96° |
| 2026-05-05 21:48 | 50.21577 | 8.42037 | 7648 ft | 293 kts | 96° |
| 2026-05-05 21:48 | 50.21412 | 8.45196 | 7273 ft | 291 kts | 96° |
| 2026-05-05 21:48 | 50.21247 | 8.48331 | 6930 ft | 289 kts | 96° |
| 2026-05-05 21:48 | 50.21083 | 8.51448 | 6534 ft | 288 kts | 96° |
| 2026-05-05 21:49 | 50.20918 | 8.54548 | 6211 ft | 285 kts | 96° |
| 2026-05-05 21:49 | 50.20754 | 8.57613 | 5818 ft | 283 kts | 96° |
| 2026-05-05 21:49 | 50.20590 | 8.60665 | 5444 ft | 281 kts | 96° |
| 2026-05-05 21:49 | 50.20427 | 8.63691 | 5110 ft | 278 kts | 96° |
| 2026-05-05 21:50 | 50.20263 | 8.66702 | 5018 ft | 280 kts | 96° |
| 2026-05-05 21:50 | 50.20098 | 8.69732 | 5005 ft | 280 kts | 96° |
| 2026-05-05 21:50 | 50.19933 | 8.72754 | 5009 ft | 280 kts | 96° |
| 2026-05-05 21:50 | 50.19766 | 8.75780 | 5010 ft | 280 kts | 96° |
| 2026-05-05 21:51 | 50.19599 | 8.78805 | 5007 ft | 279 kts | 96° |
| 2026-05-05 21:51 | 50.19431 | 8.81827 | 5013 ft | 280 kts | 96° |
| 2026-05-05 21:51 | 50.19263 | 8.84852 | 5013 ft | 280 kts | 96° |
| 2026-05-05 21:51 | 50.19092 | 8.87889 | 5014 ft | 281 kts | 96° |
| 2026-05-05 21:52 | 50.18751 | 8.93944 | 5004 ft | 280 kts | 97° |
| 2026-05-05 21:52 | 50.18224 | 8.96829 | 4949 ft | 277 kts | 122° |
| 2026-05-05 21:52 | 50.16943 | 8.99014 | 4954 ft | 272 kts | 149° |
| 2026-05-05 21:53 | 50.15221 | 9.00040 | 4959 ft | 265 kts | 176° |
| 2026-05-05 21:53 | 50.13450 | 8.99837 | 4961 ft | 248 kts | 194° |
| 2026-05-05 21:53 | 50.11811 | 8.99328 | 4944 ft | 233 kts | 194° |
| 2026-05-05 21:53 | 50.10271 | 8.98861 | 4933 ft | 218 kts | 194° |
| 2026-05-05 21:54 | 50.08941 | 8.98038 | 4911 ft | 198 kts | 220° |
| 2026-05-05 21:54 | 50.08120 | 8.96474 | 4897 ft | 180 kts | 247° |
| 2026-05-05 21:54 | 50.07742 | 8.94714 | 4890 ft | 162 kts | 252° |
| 2026-05-05 21:54 | 50.07397 | 8.93084 | 4925 ft | 162 kts | 251° |
| 2026-05-05 21:55 | 50.07042 | 8.91449 | 4835 ft | 156 kts | 251° |
| 2026-05-05 21:55 | 50.06693 | 8.89848 | 4405 ft | 156 kts | 251° |
| 2026-05-05 21:55 | 50.06344 | 8.88241 | 3927 ft | 157 kts | 251° |
| 2026-05-05 21:55 | 50.06089 | 8.86590 | 3461 ft | 158 kts | 264° |
| 2026-05-05 21:56 | 50.06147 | 8.84900 | 3017 ft | 156 kts | 274° |
| 2026-05-05 21:56 | 50.06252 | 8.83202 | 2495 ft | 158 kts | 273° |
| 2026-05-05 21:56 | 50.06344 | 8.81535 | 2183 ft | 153 kts | 272° |
| 2026-05-05 21:56 | 50.06430 | 8.79854 | 2065 ft | 159 kts | 272° |
| 2026-05-05 21:57 | 50.06516 | 8.78140 | 2010 ft | 159 kts | 272° |
| 2026-05-05 21:57 | 50.06603 | 8.76429 | 2006 ft | 158 kts | 272° |
| 2026-05-05 21:57 | 50.06689 | 8.74710 | 1998 ft | 151 kts | 272° |
| 2026-05-05 21:57 | 50.06769 | 8.73152 | 2000 ft | 145 kts | 272° |
| 2026-05-05 21:58 | 50.06848 | 8.71579 | 1999 ft | 146 kts | 271° |
| 2026-05-05 21:58 | 50.06741 | 8.70048 | 2007 ft | 143 kts | 251° |
| 2026-05-05 21:58 | 50.06381 | 8.68596 | 1874 ft | 144 kts | 247° |
| 2026-05-05 21:58 | 50.06025 | 8.67147 | 1703 ft | 143 kts | 248° |
| 2026-05-05 21:59 | 50.05680 | 8.65701 | 1514 ft | 142 kts | 248° |
| 2026-05-05 21:59 | 50.05336 | 8.64255 | 1337 ft | 143 kts | 248° |
| 2026-05-05 21:59 | 50.04964 | 8.62805 | 1157 ft | 147 kts | 250° |
| 2026-05-05 21:59 | 50.04615 | 8.61310 | 896 ft | 147 kts | 252° |
| 2026-05-05 22:00 | 50.04289 | 8.59795 | 560 ft | 147 kts | 250° |
| 2026-05-05 22:00 | 50.03921 | 8.58331 | 393 ft | 147 kts | 252° |
| 2026-05-05 22:00 | 50.03583 | 8.56894 | 342 ft | 124 kts | 250° |
| 2026-05-05 22:00 | 50.03349 | 8.55935 | 344 ft | 66 kts | 249° |
| 2026-05-05 22:01 | 50.03312 | 8.55550 | 340 ft | 7 kts | 274° |
| 2026-05-05 22:01 | 50.03317 | 8.55467 | 347 ft | 28 kts | 277° |
| 2026-05-05 22:01 | 50.03334 | 8.55294 | 343 ft | 0 kts | 278° |
| 2026-05-05 22:02 | 50.03335 | 8.55286 | 347 ft | 5 kts | 278° |
| 2026-05-05 22:03 | 50.03335 | 8.55281 | 345 ft | 0 kts | 278° |
| 2026-05-05 22:05 | 50.03343 | 8.55228 | 340 ft | 11 kts | 287° |
| 2026-05-05 22:05 | 50.03409 | 8.55179 | 340 ft | 13 kts | 31° |
| 2026-05-05 22:05 | 50.03456 | 8.55318 | 343 ft | 16 kts | 71° |
| 2026-05-05 22:05 | 50.03497 | 8.55490 | 344 ft | 18 kts | 69° |
| 2026-05-05 22:06 | 50.03544 | 8.55684 | 347 ft | 20 kts | 70° |
| 2026-05-05 22:06 | 50.03595 | 8.55897 | 347 ft | 22 kts | 70° |
| 2026-05-05 22:06 | 50.03649 | 8.56127 | 346 ft | 23 kts | 70° |
| 2026-05-05 22:06 | 50.03708 | 8.56370 | 350 ft | 25 kts | 70° |
| 2026-05-05 22:07 | 50.03749 | 8.56537 | 347 ft | 25 kts | 69° |
| 2026-05-05 22:07 | 50.03830 | 8.56890 | 348 ft | 27 kts | 68° |
| 2026-05-05 22:07 | 50.03877 | 8.57074 | 342 ft | 27 kts | 68° |
| 2026-05-05 22:07 | 50.03948 | 8.57356 | 343 ft | 29 kts | 69° |
| 2026-05-05 22:08 | 50.03989 | 8.57541 | 343 ft | 0 kts | 70° |
| 2026-05-05 22:08 | 50.03991 | 8.57550 | 342 ft | 3 kts | 70° |
| 2026-05-05 22:08 | 50.04009 | 8.57633 | 343 ft | 12 kts | 71° |
| 2026-05-05 22:08 | 50.04041 | 8.57770 | 345 ft | 15 kts | 69° |
| 2026-05-05 22:09 | 50.04082 | 8.57938 | 350 ft | 18 kts | 69° |
| 2026-05-05 22:09 | 50.04128 | 8.58129 | 343 ft | 20 kts | 70° |
| 2026-05-05 22:09 | 50.04178 | 8.58342 | 346 ft | 22 kts | 70° |
| 2026-05-05 22:09 | 50.04232 | 8.58575 | 343 ft | 24 kts | 69° |
| 2026-05-05 22:10 | 50.04294 | 8.58823 | 345 ft | 25 kts | 69° |
| 2026-05-05 22:10 | 50.04356 | 8.59088 | 349 ft | 27 kts | 70° |
| 2026-05-05 22:10 | 50.04420 | 8.59356 | 344 ft | 24 kts | 70° |
| 2026-05-05 22:10 | 50.04513 | 8.59472 | 342 ft | 16 kts | 0° |
| 2026-05-05 22:11 | 50.04635 | 8.59463 | 340 ft | 19 kts | 354° |
| 2026-05-05 22:11 | 50.04769 | 8.59402 | 345 ft | 21 kts | 337° |
| 2026-05-05 22:11 | 50.04798 | 8.59383 | 344 ft | 0 kts | 336° |
| 2026-05-05 22:11 | 50.04811 | 8.59373 | 342 ft | 8 kts | 332° |
| 2026-05-05 22:12 | 50.04849 | 8.59306 | 340 ft | 7 kts | 286° |
| 2026-05-05 22:12 | 50.04848 | 8.59257 | 340 ft | 1 kts | 259° |
| 2026-05-05 22:12 | 50.04842 | 8.59228 | 348 ft | 5 kts | 252° |
| 2026-05-05 22:12 | 50.04842 | 8.59163 | 341 ft | 7 kts | 294° |
| 2026-05-05 22:13 | 50.04877 | 8.59124 | 345 ft | 0 kts | 331° |
| 2026-05-05 22:13 | 50.04886 | 8.59117 | 342 ft | 1 kts | 336° |
| 2026-05-05 22:13 | 50.04893 | 8.59113 | 349 ft | 1 kts | 340° |
| 2026-05-05 22:13 | 50.04896 | 8.59111 | 349 ft | 0 kts | 339° |
| 2026-05-05 22:14 | 50.04898 | 8.59110 | 349 ft | 0 kts | 339° |
| 2026-05-05 22:14 | 50.04902 | 8.59109 | 349 ft | 1 kts | 343° |
| 2026-05-05 22:14 | 50.04902 | 8.59108 | 349 ft | 0 kts | 343° |